Time;durP1;ratioP1;P1;durP2;ratioP2;P2;SDS_P1;SDS_P2;PMS_P1;PMS_P2;Temp;Humidity;BMP_temperature;BMP_pressure;BME280_temperature;BME280_humidity;BME280_pressure;Samples;Min_cycle;Max_cycle;Signal;HPM_P1;HPM_P2
2021/05/14 00:01:54;;;;;;;2.80;0.93;;;10.70;1.00;;;;;;5071439;28;20174;-67
2021/05/14 00:04:42;;;;;;;0.85;0.80;;;10.70;1.00;;;;;;5064517;28;20047;-67
2021/05/14 00:07:37;;;;;;;1.50;0.77;;;10.70;1.00;;;;;;5076055;27;20488;-66
2021/05/14 00:10:25;;;;;;;2.85;1.55;;;10.70;1.00;;;;;;5071384;28;20056;-66
2021/05/14 00:13:14;;;;;;;1.83;1.20;;;10.70;1.00;;;;;;5051002;28;20036;-68
2021/05/14 00:16:04;;;;;;;2.03;0.95;;;10.50;1.00;;;;;;5075555;28;20055;-67
2021/05/14 00:18:53;;;;;;;1.73;0.75;;;10.60;1.00;;;;;;5078683;28;20079;-67
2021/05/14 00:21:43;;;;;;;1.70;1.10;;;10.60;1.20;;;;;;5061002;27;20515;-66
2021/05/14 00:24:31;;;;;;;2.50;1.35;;;10.60;1.30;;;;;;5066233;28;20040;-67
2021/05/14 00:27:20;;;;;;;1.13;0.80;;;10.50;1.80;;;;;;5077689;28;20056;-68
2021/05/14 00:30:10;;;;;;;1.23;0.88;;;10.40;2.20;;;;;;5059325;28;20053;-67
2021/05/14 00:32:57;;;;;;;1.88;0.80;;;10.40;2.00;;;;;;5062915;28;20044;-67
2021/05/14 00:35:46;;;;;;;2.40;0.70;;;10.40;2.00;;;;;;5054117;28;20075;-67
2021/05/14 00:38:34;;;;;;;1.58;1.00;;;10.40;1.80;;;;;;5071600;28;20157;-67
2021/05/14 00:41:22;;;;;;;2.30;1.25;;;10.40;1.40;;;;;;5046750;28;20137;-67
2021/05/14 00:44:31;;;;;;;1.20;0.80;;;10.40;1.80;;;;;;5054534;28;20064;-67
2021/05/14 00:47:20;;;;;;;2.55;1.27;;;10.40;2.10;;;;;;5072849;28;20054;-67
2021/05/14 00:50:12;;;;;;;1.42;0.77;;;10.50;1.50;;;;;;5057410;28;21023;-68
2021/05/14 00:53:04;;;;;;;3.13;0.93;;;10.40;1.30;;;;;;5054626;28;20131;-67
2021/05/14 00:55:52;;;;;;;1.50;0.65;;;10.50;1.30;;;;;;5079474;28;20051;-67
2021/05/14 00:58:40;;;;;;;1.73;1.25;;;10.40;1.50;;;;;;5065335;28;20414;-67
2021/05/14 01:01:28;;;;;;;2.63;1.20;;;10.30;1.70;;;;;;5075416;28;20051;-68
2021/05/14 01:04:17;;;;;;;1.92;0.93;;;10.30;1.70;;;;;;5057950;28;20032;-66
2021/05/14 01:07:06;;;;;;;3.65;1.00;;;10.30;2.20;;;;;;5077945;28;20048;-66
2021/05/14 01:09:55;;;;;;;1.10;0.90;;;10.40;2.00;;;;;;5075456;28;20672;-67
2021/05/14 01:12:43;;;;;;;2.38;0.82;;;10.30;1.90;;;;;;5076392;28;20078;-67
2021/05/14 01:15:31;;;;;;;1.88;1.00;;;10.30;1.90;;;;;;5075032;28;20033;-68
2021/05/14 01:18:19;;;;;;;3.67;1.00;;;10.30;1.90;;;;;;5076398;28;20056;-68
2021/05/14 01:21:11;;;;;;;2.25;0.77;;;10.30;1.50;;;;;;5073097;28;20415;-68
2021/05/14 01:23:59;;;;;;;1.10;0.90;;;10.20;1.50;;;;;;5081664;28;20044;-67
2021/05/14 01:26:47;;;;;;;0.82;0.73;;;10.20;1.50;;;;;;5072953;28;20047;-68
2021/05/14 01:29:35;;;;;;;2.10;1.00;;;10.30;1.50;;;;;;5053962;28;20051;-68
2021/05/14 01:32:23;;;;;;;1.25;0.60;;;10.20;1.60;;;;;;5078438;28;20084;-68
2021/05/14 01:35:11;;;;;;;1.38;0.77;;;10.20;1.70;;;;;;5075340;28;20048;-68
2021/05/14 01:38:00;;;;;;;1.38;0.82;;;10.20;1.70;;;;;;5073702;28;20368;-68
2021/05/14 01:40:48;;;;;;;1.60;0.90;;;10.10;1.70;;;;;;5061225;28;20420;-69
2021/05/14 01:43:36;;;;;;;1.65;0.90;;;10.10;2.40;;;;;;5057865;28;20140;-67
2021/05/14 01:46:24;;;;;;;1.73;0.80;;;10.00;2.80;;;;;;5076620;28;20056;-66
2021/05/14 01:49:13;;;;;;;1.15;0.82;;;10.00;3.00;;;;;;5069995;28;20507;-67
2021/05/14 01:52:00;;;;;;;1.05;0.73;;;9.90;4.70;;;;;;5075317;28;20532;-67
2021/05/14 01:54:49;;;;;;;3.88;1.02;;;9.80;4.70;;;;;;5073427;28;20509;-67
2021/05/14 01:57:37;;;;;;;3.50;1.65;;;9.90;4.70;;;;;;5072171;28;21220;-67
2021/05/14 02:00:25;;;;;;;1.75;1.20;;;9.90;4.70;;;;;;5072891;28;20131;-67
2021/05/14 02:03:13;;;;;;;1.80;1.13;;;9.80;4.70;;;;;;5071407;28;20048;-67
2021/05/14 02:06:02;;;;;;;1.75;1.15;;;9.80;5.10;;;;;;5074972;28;20111;-66
2021/05/14 02:08:50;;;;;;;1.80;1.20;;;9.80;5.40;;;;;;5006742;28;20572;-67
2021/05/14 02:11:39;;;;;;;8.15;2.03;;;9.80;6.90;;;;;;5068418;28;20044;-68
2021/05/14 02:14:27;;;;;;;2.85;1.33;;;9.70;7.00;;;;;;5071114;28;20069;-66
2021/05/14 02:17:15;;;;;;;1.67;1.20;;;9.70;7.80;;;;;;5070358;28;20048;-66
2021/05/14 02:20:05;;;;;;;1.80;1.10;;;9.70;7.60;;;;;;5073263;28;20048;-67
2021/05/14 02:22:53;;;;;;;1.17;0.88;;;9.70;8.30;;;;;;5077297;28;20119;-67
2021/05/14 02:25:41;;;;;;;2.33;1.00;;;9.70;8.20;;;;;;5063139;28;20506;-66
2021/05/14 02:28:30;;;;;;;1.08;0.88;;;9.70;7.30;;;;;;5076745;28;20051;-67
2021/05/14 02:31:18;;;;;;;1.80;0.98;;;9.70;7.60;;;;;;5078152;28;20047;-66
2021/05/14 02:34:06;;;;;;;2.53;1.00;;;9.60;7.40;;;;;;5077238;28;20047;-67
2021/05/14 02:36:54;;;;;;;4.25;1.60;;;9.60;7.50;;;;;;5070016;28;20048;-68
2021/05/14 02:39:42;;;;;;;2.03;1.00;;;9.60;7.70;;;;;;5070533;28;20174;-67
2021/05/14 02:42:30;;;;;;;1.45;0.80;;;9.60;7.60;;;;;;5084599;28;20079;-67
2021/05/14 02:45:19;;;;;;;3.17;1.00;;;9.60;7.90;;;;;;5074682;28;20598;-67
2021/05/14 02:48:07;;;;;;;4.72;1.10;;;9.50;7.80;;;;;;5079006;28;20133;-66
2021/05/14 02:50:55;;;;;;;1.17;0.95;;;9.50;8.20;;;;;;5076774;28;20410;-66
2021/05/14 02:53:43;;;;;;;2.25;1.00;;;9.50;7.70;;;;;;5076747;28;20160;-67
2021/05/14 02:56:32;;;;;;;1.73;1.00;;;9.60;7.60;;;;;;5078772;28;20212;-67
2021/05/14 02:59:20;;;;;;;1.60;1.08;;;9.40;8.10;;;;;;5077818;28;20395;-67
2021/05/14 03:02:09;;;;;;;2.38;1.00;;;9.50;8.20;;;;;;5064351;28;20060;-67
2021/05/14 03:04:57;;;;;;;4.45;1.05;;;9.60;7.80;;;;;;5078855;28;20119;-67
2021/05/14 03:07:45;;;;;;;2.03;1.15;;;9.60;7.20;;;;;;5084970;28;20044;-66
2021/05/14 03:10:33;;;;;;;1.17;1.05;;;9.60;7.20;;;;;;5074514;28;20129;-66
2021/05/14 03:13:21;;;;;;;3.00;1.00;;;9.70;6.90;;;;;;5079688;28;20131;-66
2021/05/14 03:16:09;;;;;;;1.65;0.98;;;9.70;6.90;;;;;;5079672;28;20090;-67
2021/05/14 03:18:58;;;;;;;4.13;0.95;;;9.60;7.10;;;;;;5075267;28;20048;-66
2021/05/14 03:21:46;;;;;;;2.10;1.10;;;9.50;7.60;;;;;;5080173;28;20052;-67
2021/05/14 03:24:34;;;;;;;1.90;1.15;;;9.40;8.10;;;;;;5074682;28;20048;-67
2021/05/14 03:27:22;;;;;;;1.50;0.90;;;9.40;10.00;;;;;;5074025;28;20185;-66
2021/05/14 03:30:11;;;;;;;2.78;1.10;;;9.40;10.10;;;;;;5079042;28;20158;-67
2021/05/14 03:33:00;;;;;;;3.08;1.10;;;9.20;11.60;;;;;;5078897;28;20055;-67
2021/05/14 03:35:51;;;;;;;1.75;1.05;;;9.10;11.60;;;;;;5077778;28;20483;-67
2021/05/14 03:38:39;;;;;;;2.08;1.00;;;9.10;11.60;;;;;;5074564;28;20047;-67
2021/05/14 03:41:43;;;;;;;2.03;1.20;;;9.20;11.60;;;;;;5082414;28;20524;-68
2021/05/14 03:44:32;;;;;;;2.00;1.02;;;9.10;11.60;;;;;;5080633;28;20067;-67
2021/05/14 03:47:22;;;;;;;2.88;1.13;;;9.20;11.00;;;;;;5075479;28;20145;-66
2021/05/14 03:50:11;;;;;;;2.65;1.23;;;9.30;10.70;;;;;;5075274;28;20052;-67
2021/05/14 03:53:03;;;;;;;2.55;1.30;;;9.40;10.50;;;;;;5078980;28;20105;-67
2021/05/14 03:55:51;;;;;;;2.45;1.25;;;9.40;10.30;;;;;;5076799;28;20044;-67
2021/05/14 03:58:39;;;;;;;2.10;1.33;;;9.40;9.90;;;;;;5069692;28;20045;-67
2021/05/14 04:01:29;;;;;;;2.65;1.20;;;9.20;10.40;;;;;;5076266;28;20052;-67
2021/05/14 04:04:17;;;;;;;2.60;1.10;;;9.30;11.10;;;;;;5079421;28;20060;-67
2021/05/14 04:07:06;;;;;;;4.38;1.35;;;9.50;10.20;;;;;;5076948;28;20048;-67
2021/05/14 04:10:04;;;;;;;2.42;1.15;;;9.40;9.50;;;;;;5076410;28;20143;-68
2021/05/14 04:15:58;;;;;;;2.33;1.25;;;9.40;10.90;;;;;;5077303;28;20040;-67
2021/05/14 04:18:46;;;;;;;2.17;0.90;;;9.50;10.00;;;;;;5074576;28;20086;-67
2021/05/14 04:21:34;;;;;;;1.30;1.00;;;9.40;10.00;;;;;;5078901;28;20097;-67
2021/05/14 04:24:23;;;;;;;2.15;1.17;;;9.40;10.10;;;;;;5077634;28;20127;-66
2021/05/14 04:27:14;;;;;;;1.58;1.05;;;9.40;9.80;;;;;;5076873;28;20051;-66
2021/05/14 04:30:03;;;;;;;2.08;1.17;;;9.30;10.70;;;;;;5076506;27;20443;-67
2021/05/14 04:32:51;;;;;;;2.67;1.50;;;9.40;10.50;;;;;;5077002;28;20083;-67
2021/05/14 04:35:39;;;;;;;9.15;1.85;;;9.40;10.10;;;;;;5082863;28;20277;-67
2021/05/14 04:38:27;;;;;;;2.45;1.17;;;9.30;10.70;;;;;;5080038;28;20519;-67
2021/05/14 04:41:14;;;;;;;3.38;1.20;;;9.30;11.70;;;;;;5074808;28;20466;-67
2021/05/14 04:44:04;;;;;;;3.38;1.33;;;9.50;10.70;;;;;;5077074;28;20056;-67
2021/05/14 04:46:52;;;;;;;2.72;1.38;;;11.40;1.30;;;;;;5076243;28;20044;-66
2021/05/14 04:49:41;;;;;;;1.55;1.20;;;13.50;1.00;;;;;;5076436;28;20048;-68
2021/05/14 04:52:30;;;;;;;2.17;1.40;;;14.40;1.00;;;;;;5076895;28;20083;-66
2021/05/14 04:55:18;;;;;;;1.65;1.00;;;14.80;1.00;;;;;;5080446;28;20040;-67
2021/05/14 04:58:06;;;;;;;4.72;1.20;;;15.30;1.00;;;;;;5076882;28;20479;-67
2021/05/14 05:00:55;;;;;;;3.63;1.35;;;15.50;1.00;;;;;;5074987;28;22580;-67
2021/05/14 05:03:44;;;;;;;3.35;1.20;;;16.50;1.00;;;;;;5076595;28;20429;-67
2021/05/14 05:06:33;;;;;;;3.47;1.35;;;16.60;1.00;;;;;;5077986;28;20143;-68
2021/05/14 05:09:21;;;;;;;1.95;1.10;;;15.80;1.00;;;;;;5068472;28;20079;-66
2021/05/14 05:12:12;;;;;;;6.32;1.48;;;15.40;1.00;;;;;;5075089;28;20064;-66
2021/05/14 05:15:00;;;;;;;1.85;1.00;;;16.30;1.00;;;;;;5080436;28;20040;-67
2021/05/14 05:17:48;;;;;;;2.63;1.13;;;16.70;1.00;;;;;;5075113;28;20044;-67
2021/05/14 05:20:36;;;;;;;11.20;1.50;;;16.50;1.00;;;;;;5074290;28;20045;-67
2021/05/14 05:23:24;;;;;;;2.58;1.10;;;16.70;1.00;;;;;;5076658;28;20052;-68
2021/05/14 05:26:12;;;;;;;3.28;1.30;;;16.90;1.00;;;;;;5078906;28;20186;-68
2021/05/14 05:29:00;;;;;;;3.38;1.30;;;17.60;1.00;;;;;;5076279;28;20173;-68
2021/05/14 05:31:48;;;;;;;2.25;1.10;;;18.00;1.00;;;;;;5078250;28;20040;-66
2021/05/14 05:34:37;;;;;;;2.65;1.13;;;16.90;1.00;;;;;;5075913;28;20044;-67
2021/05/14 05:37:25;;;;;;;2.53;1.15;;;16.60;1.00;;;;;;5073952;28;20057;-67
2021/05/14 05:40:14;;;;;;;2.05;1.13;;;17.70;1.00;;;;;;5072553;28;20064;-67
2021/05/14 05:43:01;;;;;;;3.83;1.17;;;16.60;1.00;;;;;;5076751;28;20118;-66
2021/05/14 05:45:49;;;;;;;2.28;1.27;;;16.60;1.00;;;;;;5074741;28;20047;-66
2021/05/14 05:48:38;;;;;;;3.60;1.15;;;17.50;1.00;;;;;;5071653;28;20190;-66
2021/05/14 05:51:27;;;;;;;3.00;1.50;;;16.20;1.00;;;;;;5075690;28;20048;-66
2021/05/14 05:54:15;;;;;;;1.83;1.50;;;14.00;1.00;;;;;;5074923;28;20798;-67
2021/05/14 05:57:04;;;;;;;3.20;1.13;;;13.50;1.00;;;;;;5078675;28;20511;-66
2021/05/14 05:59:52;;;;;;;5.68;1.85;;;13.40;1.00;;;;;;5062070;28;20055;-67
2021/05/14 06:02:40;;;;;;;1.30;1.10;;;13.20;1.00;;;;;;5074700;28;20112;-67
2021/05/14 06:05:28;;;;;;;0.80;0.80;;;13.60;1.00;;;;;;5071779;28;20130;-67
2021/05/14 06:08:16;;;;;;;2.47;1.02;;;13.90;1.00;;;;;;5077285;28;20130;-67
2021/05/14 06:11:04;;;;;;;2.35;0.98;;;13.40;1.00;;;;;;5077787;28;20193;-66
2021/05/14 06:13:52;;;;;;;3.03;1.13;;;14.20;1.00;;;;;;5059284;28;20195;-66
2021/05/14 06:16:40;;;;;;;3.50;1.33;;;15.90;1.00;;;;;;5075876;28;20124;-66
2021/05/14 06:19:31;;;;;;;1.75;0.77;;;16.60;1.00;;;;;;5072913;28;20058;-67
2021/05/14 06:22:19;;;;;;;1.92;0.98;;;16.90;1.00;;;;;;5078750;28;20503;-65
2021/05/14 06:25:09;;;;;;;1.55;0.95;;;14.70;1.00;;;;;;5074154;28;20106;-68
2021/05/14 06:27:58;;;;;;;2.55;1.00;;;13.90;1.00;;;;;;5076310;28;20053;-67
2021/05/14 06:30:46;;;;;;;1.67;1.00;;;13.30;1.00;;;;;;5068697;28;20055;-68
2021/05/14 06:33:35;;;;;;;2.88;1.40;;;13.40;1.00;;;;;;5078648;28;20051;-67
2021/05/14 06:36:23;;;;;;;1.15;0.70;;;13.50;1.00;;;;;;5073052;28;20048;-67
2021/05/14 06:39:10;;;;;;;4.28;1.30;;;12.70;1.00;;;;;;5071082;28;20589;-66
2021/05/14 06:41:59;;;;;;;1.73;0.73;;;12.80;1.00;;;;;;5072881;28;20055;-68
2021/05/14 06:44:48;;;;;;;0.98;0.70;;;13.30;1.00;;;;;;5076701;28;20063;-68
2021/05/14 06:47:36;;;;;;;2.45;0.80;;;13.30;1.00;;;;;;5078236;28;20048;-68
2021/05/14 06:50:24;;;;;;;2.88;0.75;;;12.40;1.00;;;;;;5072349;28;20068;-67
2021/05/14 06:53:12;;;;;;;1.63;0.82;;;12.80;1.00;;;;;;5071519;28;20101;-67
2021/05/14 06:56:00;;;;;;;1.13;0.40;;;13.30;1.00;;;;;;5074895;28;20072;-65
2021/05/14 06:58:49;;;;;;;1.67;0.80;;;13.10;1.00;;;;;;5074457;28;20106;-68
2021/05/14 07:01:37;;;;;;;0.88;0.65;;;13.20;1.00;;;;;;5070163;28;20052;-67
2021/05/14 07:04:25;;;;;;;1.08;0.43;;;13.50;1.00;;;;;;5073854;28;20547;-67
2021/05/14 07:07:13;;;;;;;0.85;0.68;;;13.40;1.00;;;;;;5075700;28;20104;-67
2021/05/14 07:10:01;;;;;;;1.38;0.50;;;14.10;1.00;;;;;;5074091;28;20579;-67
2021/05/14 07:12:49;;;;;;;0.52;0.40;;;14.30;1.00;;;;;;5076756;28;20051;-67
2021/05/14 07:15:37;;;;;;;1.77;0.57;;;13.90;1.00;;;;;;5066992;28;20052;-67
2021/05/14 07:18:25;;;;;;;1.40;0.50;;;13.90;1.00;;;;;;5075477;28;20044;-67
2021/05/14 07:21:13;;;;;;;2.00;1.25;;;13.70;1.00;;;;;;5073193;28;20044;-67
2021/05/14 07:24:15;;;;;;;0.77;0.40;;;14.90;1.00;;;;;;5074577;28;20053;-66
2021/05/14 07:27:03;;;;;;;1.73;0.40;;;15.40;1.00;;;;;;5073016;28;20051;-67
2021/05/14 07:29:51;;;;;;;0.40;0.30;;;14.60;1.00;;;;;;5080142;28;20125;-67
2021/05/14 07:32:40;;;;;;;1.50;0.57;;;15.00;1.00;;;;;;5077356;28;20076;-67
2021/05/14 07:35:29;;;;;;;1.05;0.43;;;14.30;1.00;;;;;;5079448;28;20041;-67
2021/05/14 07:38:28;;;;;;;0.50;0.45;;;14.50;1.00;;;;;;5077996;28;20059;-66
2021/05/14 07:41:16;;;;;;;1.25;0.40;;;13.60;1.00;;;;;;5077623;28;20190;-68
2021/05/14 07:44:04;;;;;;;1.65;0.50;;;13.60;1.00;;;;;;5078783;28;20052;-68
2021/05/14 07:46:52;;;;;;;2.10;0.60;;;14.20;1.00;;;;;;5077839;28;20170;-67
2021/05/14 07:49:43;;;;;;;2.40;0.50;;;15.40;1.00;;;;;;5074320;28;20060;-68
2021/05/14 07:52:31;;;;;;;1.77;0.47;;;15.50;1.00;;;;;;5065029;28;20052;-67
2021/05/14 07:55:19;;;;;;;2.70;0.47;;;15.30;1.00;;;;;;5075380;28;20132;-67
2021/05/14 07:58:06;;;;;;;1.13;0.45;;;14.40;1.00;;;;;;5074556;28;20048;-67
2021/05/14 08:00:54;;;;;;;1.38;0.40;;;13.80;1.00;;;;;;5080964;28;20051;-67
2021/05/14 08:03:42;;;;;;;1.42;0.50;;;13.80;1.00;;;;;;5081770;28;20074;-67
2021/05/14 08:06:31;;;;;;;1.02;0.57;;;13.60;1.00;;;;;;5064579;28;20101;-67
2021/05/14 08:09:21;;;;;;;2.13;0.38;;;13.70;1.00;;;;;;5075720;28;20085;-67
2021/05/14 08:12:09;;;;;;;0.63;0.30;;;13.60;1.00;;;;;;5077969;28;20543;-67
2021/05/14 08:15:00;;;;;;;1.17;0.50;;;14.30;1.00;;;;;;5076588;28;20048;-67
2021/05/14 08:17:50;;;;;;;4.70;0.57;;;14.00;1.00;;;;;;5076322;28;20418;-68
2021/05/14 08:20:41;;;;;;;0.73;0.28;;;14.90;1.00;;;;;;5075854;28;20059;-66
2021/05/14 08:23:30;;;;;;;1.60;0.50;;;14.50;1.00;;;;;;5079423;28;20051;-67
2021/05/14 08:26:17;;;;;;;1.63;0.35;;;14.50;1.00;;;;;;5079111;28;20519;-68
2021/05/14 08:29:05;;;;;;;7.40;0.80;;;14.70;1.00;;;;;;5071204;28;20166;-68
2021/05/14 08:31:53;;;;;;;2.50;0.60;;;15.10;1.00;;;;;;5075711;28;20470;-66
2021/05/14 08:34:41;;;;;;;1.80;0.50;;;15.70;1.00;;;;;;5076298;28;20512;-68
2021/05/14 08:37:29;;;;;;;0.75;0.30;;;14.80;1.00;;;;;;5076220;28;20565;-67
2021/05/14 08:40:18;;;;;;;4.25;0.70;;;14.70;1.00;;;;;;5068155;28;20048;-67
2021/05/14 08:43:06;;;;;;;3.88;0.60;;;15.10;1.00;;;;;;5078840;28;20537;-67
2021/05/14 08:45:54;;;;;;;0.82;0.47;;;15.10;1.00;;;;;;5077384;28;20055;-68
2021/05/14 08:48:42;;;;;;;0.80;0.50;;;15.20;1.00;;;;;;5074240;28;20043;-67
2021/05/14 08:51:30;;;;;;;1.27;0.45;;;15.30;1.00;;;;;;5075504;28;20110;-67
2021/05/14 08:54:18;;;;;;;0.30;0.20;;;16.30;1.00;;;;;;5078037;28;20234;-68
2021/05/14 08:57:07;;;;;;;1.17;0.30;;;16.00;1.00;;;;;;5078955;28;20123;-67
2021/05/14 08:59:55;;;;;;;0.40;0.20;;;15.20;1.00;;;;;;5074430;28;20051;-67
2021/05/14 09:02:43;;;;;;;2.50;0.47;;;14.70;1.00;;;;;;5063971;28;20037;-67
2021/05/14 09:05:33;;;;;;;2.85;0.50;;;14.90;1.00;;;;;;5077380;28;20041;-67
2021/05/14 09:08:29;;;;;;;1.83;0.40;;;15.40;1.00;;;;;;5081485;28;20051;-67
2021/05/14 09:11:33;;;;;;;2.25;0.57;;;15.00;1.00;;;;;;5070894;28;20051;-66
2021/05/14 09:14:36;;;;;;;1.08;0.47;;;15.10;1.00;;;;;;5074052;28;20076;-67
2021/05/14 09:17:26;;;;;;;0.90;0.30;;;15.40;1.00;;;;;;5076904;28;20068;-67
2021/05/14 09:20:29;;;;;;;0.65;0.40;;;15.70;1.00;;;;;;5062395;28;20595;-67
2021/05/14 09:23:26;;;;;;;0.60;0.40;;;15.90;1.00;;;;;;5078609;28;20036;-68
2021/05/14 09:26:15;;;;;;;1.73;0.50;;;15.50;1.00;;;;;;5074573;28;20392;-68
2021/05/14 09:29:03;;;;;;;0.50;0.40;;;15.30;1.00;;;;;;5068465;28;20125;-66
2021/05/14 09:31:52;;;;;;;1.30;0.47;;;15.80;1.00;;;;;;5074029;28;20412;-68
2021/05/14 09:34:40;;;;;;;2.75;0.43;;;16.10;1.00;;;;;;5075847;28;20408;-67
2021/05/14 09:37:29;;;;;;;2.00;0.32;;;16.20;1.00;;;;;;5074054;28;20052;-67
2021/05/14 09:40:18;;;;;;;0.90;0.30;;;16.80;1.00;;;;;;5065591;28;20105;-67
2021/05/14 09:43:06;;;;;;;2.08;0.40;;;16.50;1.00;;;;;;5075850;28;20044;-67
2021/05/14 09:45:54;;;;;;;1.52;0.35;;;15.80;1.00;;;;;;5075522;28;20131;-69
2021/05/14 09:48:55;;;;;;;0.93;0.43;;;15.70;1.00;;;;;;5072484;28;20107;-67
2021/05/14 09:51:49;;;;;;;0.85;0.40;;;15.40;1.00;;;;;;5070603;28;20181;-66
2021/05/14 09:54:38;;;;;;;1.83;0.82;;;15.80;1.00;;;;;;5075628;28;20217;-66
2021/05/14 09:57:33;;;;;;;1.00;0.30;;;15.40;1.00;;;;;;5075661;28;20163;-66
2021/05/14 10:00:21;;;;;;;2.10;0.38;;;15.50;1.00;;;;;;5057024;28;20040;-66
2021/05/14 10:03:11;;;;;;;1.55;0.32;;;15.70;1.00;;;;;;5072746;28;20054;-66
2021/05/14 10:06:03;;;;;;;2.47;0.32;;;15.60;1.00;;;;;;5076221;28;20049;-67
2021/05/14 10:08:52;;;;;;;0.38;0.20;;;16.00;1.00;;;;;;5070360;28;20101;-67
2021/05/14 10:11:41;;;;;;;2.20;0.50;;;16.00;1.00;;;;;;5070108;28;20080;-67
2021/05/14 10:14:29;;;;;;;0.88;0.50;;;15.80;1.00;;;;;;5058354;28;20086;-67
2021/05/14 10:17:17;;;;;;;0.47;0.20;;;16.30;1.00;;;;;;5058057;28;20180;-67
2021/05/14 10:20:13;;;;;;;0.80;0.22;;;15.60;1.00;;;;;;5073390;28;20816;-68
2021/05/14 10:23:03;;;;;;;0.40;0.30;;;16.20;1.00;;;;;;5078713;28;20040;-68
2021/05/14 10:25:53;;;;;;;3.72;0.60;;;16.90;1.00;;;;;;5074690;28;20803;-68
2021/05/14 10:28:45;;;;;;;1.15;0.40;;;17.20;1.00;;;;;;5039670;28;20071;-67
2021/05/14 10:31:43;;;;;;;2.85;0.30;;;17.00;1.00;;;;;;5072971;28;20066;-62
2021/05/14 10:34:34;;;;;;;3.72;0.40;;;16.70;1.00;;;;;;5072646;28;20044;-62
2021/05/14 10:37:44;;;;;;;0.80;0.35;;;17.00;1.00;;;;;;5072444;28;20512;-62
2021/05/14 10:40:43;;;;;;;0.95;0.30;;;17.70;1.00;;;;;;5077099;28;20412;-62
2021/05/14 10:43:59;;;;;;;1.38;0.40;;;17.10;1.00;;;;;;5068279;28;20170;-62
2021/05/14 10:46:51;;;;;;;0.90;0.40;;;16.60;1.00;;;;;;5079207;28;20098;-61
2021/05/14 10:49:41;;;;;;;0.47;0.30;;;16.70;1.00;;;;;;5058877;28;20044;-62
2021/05/14 10:52:31;;;;;;;2.03;0.20;;;16.80;1.00;;;;;;5056911;28;20094;-62
2021/05/14 10:55:30;;;;;;;1.17;0.50;;;16.80;1.00;;;;;;5057047;28;20071;-62
2021/05/14 10:58:42;;;;;;;2.30;0.60;;;16.70;1.00;;;;;;5076245;28;20059;-62
2021/05/14 11:01:32;;;;;;;0.75;0.40;;;16.80;1.00;;;;;;5081849;28;20052;-61
2021/05/14 11:04:41;;;;;;;1.35;0.40;;;16.90;1.00;;;;;;5076488;28;20559;-61
2021/05/14 11:07:40;;;;;;;1.23;0.70;;;16.50;1.00;;;;;;5084253;28;20714;-62
2021/05/14 11:10:30;;;;;;;2.30;0.50;;;16.70;1.00;;;;;;5078169;28;20201;-62
2021/05/14 11:13:44;;;;;;;2.10;0.43;;;17.10;1.00;;;;;;5087303;28;20047;-62
2021/05/14 11:16:41;;;;;;;1.40;0.73;;;16.50;1.00;;;;;;5080867;28;20525;-62
2021/05/14 11:19:30;;;;;;;0.90;0.57;;;16.60;1.00;;;;;;5083472;28;20154;-62
2021/05/14 11:22:23;;;;;;;3.13;0.63;;;16.20;1.00;;;;;;5081583;28;20079;-62
2021/05/14 11:25:13;;;;;;;3.58;0.65;;;16.30;1.00;;;;;;5082685;28;20138;-62
2021/05/14 11:28:01;;;;;;;2.25;0.57;;;15.90;1.00;;;;;;5080717;28;20111;-60
2021/05/14 11:30:54;;;;;;;1.45;0.60;;;16.20;1.00;;;;;;5065099;28;20079;-62
2021/05/14 11:33:44;;;;;;;1.92;0.90;;;16.20;1.00;;;;;;5071855;28;20055;-62
2021/05/14 11:36:35;;;;;;;3.22;0.77;;;16.20;1.00;;;;;;5082254;28;20044;-62
2021/05/14 11:39:23;;;;;;;3.25;0.75;;;16.00;1.00;;;;;;5065229;28;20119;-62
2021/05/14 11:42:17;;;;;;;1.95;0.65;;;16.60;1.00;;;;;;5082834;28;20058;-62
2021/05/14 11:45:09;;;;;;;2.75;0.77;;;16.60;1.00;;;;;;5084869;28;20446;-62
2021/05/14 11:47:58;;;;;;;1.77;0.73;;;16.70;1.00;;;;;;5083730;28;20056;-62
2021/05/14 11:50:48;;;;;;;1.02;0.60;;;16.20;1.00;;;;;;5062691;28;20199;-62
2021/05/14 11:53:36;;;;;;;4.25;0.55;;;16.50;1.00;;;;;;5072224;28;20507;-62
2021/05/14 11:56:32;;;;;;;1.00;0.47;;;16.70;1.00;;;;;;5083695;28;21173;-62
2021/05/14 11:59:21;;;;;;;3.80;0.70;;;16.70;1.00;;;;;;5079432;28;20508;-63
2021/05/14 12:02:09;;;;;;;1.27;0.82;;;16.50;1.00;;;;;;5067864;28;20056;-62
2021/05/14 12:04:57;;;;;;;1.35;0.70;;;16.30;1.00;;;;;;5066897;28;20047;-62
2021/05/14 12:07:46;;;;;;;0.50;0.40;;;16.40;1.00;;;;;;5063884;28;20053;-62
2021/05/14 12:10:45;;;;;;;3.53;0.60;;;16.50;1.00;;;;;;5082052;28;20048;-63
2021/05/14 12:13:35;;;;;;;1.77;0.50;;;16.10;1.00;;;;;;5064408;28;20423;-62
2021/05/14 12:16:23;;;;;;;1.92;0.82;;;16.30;1.00;;;;;;5082622;28;20145;-62
2021/05/14 12:19:11;;;;;;;2.85;1.35;;;16.30;1.00;;;;;;5082547;28;20127;-61
2021/05/14 12:22:09;;;;;;;0.65;0.47;;;16.90;1.00;;;;;;5079766;28;20647;-62
2021/05/14 12:24:58;;;;;;;2.63;0.70;;;16.90;1.00;;;;;;5081149;28;20515;-63
2021/05/14 12:27:46;;;;;;;2.08;0.70;;;17.50;1.00;;;;;;5083117;28;20400;-62
2021/05/14 12:30:39;;;;;;;1.30;0.50;;;17.20;1.00;;;;;;5060160;28;20064;-61
2021/05/14 12:33:27;;;;;;;0.80;0.45;;;17.30;1.00;;;;;;5082566;28;20052;-61
2021/05/14 12:36:25;;;;;;;1.95;0.70;;;17.50;1.00;;;;;;5085734;28;20131;-62
2021/05/14 12:39:14;;;;;;;1.70;0.55;;;17.30;1.00;;;;;;5062960;28;20052;-62
2021/05/14 12:42:03;;;;;;;0.98;0.50;;;17.70;1.00;;;;;;5062599;28;20552;-62
2021/05/14 12:44:53;;;;;;;0.85;0.40;;;17.90;1.00;;;;;;5061444;28;20084;-62
2021/05/14 12:47:45;;;;;;;1.48;0.50;;;16.80;1.00;;;;;;5079281;28;20095;-62
2021/05/14 12:50:36;;;;;;;1.05;0.50;;;18.30;1.00;;;;;;5073017;28;20052;-62
2021/05/14 12:53:24;;;;;;;1.23;0.40;;;18.20;1.00;;;;;;5065818;28;20539;-62
2021/05/14 12:56:26;;;;;;;0.80;0.35;;;17.80;1.00;;;;;;5083808;28;20388;-62
2021/05/14 12:59:21;;;;;;;2.55;0.40;;;17.60;1.00;;;;;;5079273;28;20394;-62
2021/05/14 13:02:09;;;;;;;;;;;17.60;1.00;;;;;;5065726;28;20048;-62
2021/05/14 13:05:02;;;;;;;3.38;0.50;;;17.80;1.00;;;;;;5082042;28;20408;-61
2021/05/14 13:08:07;;;;;;;4.10;0.60;;;17.80;1.00;;;;;;5070120;28;20136;-62
2021/05/14 13:10:57;;;;;;;0.95;0.50;;;17.90;1.00;;;;;;5063124;28;20428;-61
2021/05/14 13:13:45;;;;;;;2.17;0.63;;;18.20;1.00;;;;;;5081458;28;20048;-62
2021/05/14 13:16:34;;;;;;;0.82;0.30;;;18.70;1.00;;;;;;5068817;28;20055;-62
2021/05/14 13:19:25;;;;;;;1.70;0.50;;;18.60;1.00;;;;;;5079457;28;20036;-62
2021/05/14 13:22:14;;;;;;;1.33;0.40;;;18.70;1.00;;;;;;5081034;28;20227;-62
2021/05/14 13:25:03;;;;;;;1.25;0.40;;;19.20;1.00;;;;;;5083091;28;20051;-63
2021/05/14 13:27:51;;;;;;;3.58;0.73;;;19.00;1.00;;;;;;5080106;28;20175;-63
2021/05/14 13:30:39;;;;;;;1.52;0.55;;;19.10;1.00;;;;;;5071799;28;20066;-61
2021/05/14 13:33:28;;;;;;;1.98;0.60;;;18.90;1.00;;;;;;5080506;28;20129;-63
2021/05/14 13:36:17;;;;;;;2.60;0.50;;;18.50;1.00;;;;;;5082301;28;20071;-62
2021/05/14 13:39:06;;;;;;;0.45;0.35;;;18.30;1.00;;;;;;5058381;28;20055;-63
2021/05/14 13:41:54;;;;;;;0.80;0.40;;;18.50;1.00;;;;;;5078613;28;20079;-62
2021/05/14 13:44:45;;;;;;;9.43;0.80;;;18.40;1.00;;;;;;5080166;28;20097;-61
2021/05/14 13:47:33;;;;;;;1.45;0.60;;;18.30;1.00;;;;;;5063891;28;20035;-62
2021/05/14 13:50:23;;;;;;;1.58;0.55;;;19.30;1.00;;;;;;5078328;28;20123;-62
2021/05/14 13:53:11;;;;;;;1.67;0.50;;;19.00;1.00;;;;;;5078713;28;20134;-62
2021/05/14 13:55:59;;;;;;;2.42;0.60;;;19.90;1.00;;;;;;5081245;28;20400;-62
2021/05/14 13:58:48;;;;;;;1.60;0.47;;;20.20;1.00;;;;;;5080089;28;20324;-61
2021/05/14 14:01:36;;;;;;;0.75;0.50;;;19.10;1.00;;;;;;5080019;28;20186;-62
2021/05/14 14:04:25;;;;;;;1.30;0.50;;;19.30;1.00;;;;;;5078162;28;20047;-62
2021/05/14 14:07:14;;;;;;;2.92;0.50;;;18.80;1.00;;;;;;5078176;28;20052;-62
2021/05/14 14:10:03;;;;;;;1.10;0.50;;;19.30;1.00;;;;;;5060639;28;20079;-62
2021/05/14 14:12:51;;;;;;;0.95;0.40;;;19.80;1.00;;;;;;5077891;28;20063;-62
2021/05/14 14:15:39;;;;;;;3.58;0.40;;;19.50;1.00;;;;;;5084010;28;20165;-62
2021/05/14 14:18:27;;;;;;;1.83;0.52;;;19.80;1.00;;;;;;5082120;28;20048;-61
2021/05/14 14:21:15;;;;;;;2.70;0.68;;;18.80;1.00;;;;;;5055125;28;20060;-62
2021/05/14 14:24:06;;;;;;;2.92;0.50;;;18.70;1.00;;;;;;5080261;28;20487;-62
2021/05/14 14:26:54;;;;;;;1.63;0.55;;;18.30;1.00;;;;;;5062965;28;20400;-62
2021/05/14 14:29:42;;;;;;;0.88;0.40;;;18.40;1.00;;;;;;5066636;28;20572;-62
2021/05/14 14:32:29;;;;;;;0.80;0.50;;;18.30;1.00;;;;;;5082569;28;20048;-62
2021/05/14 14:35:17;;;;;;;0.77;0.40;;;18.30;1.00;;;;;;5079371;28;20512;-62
2021/05/14 14:38:26;;;;;;;0.95;0.40;;;18.30;1.00;;;;;;5083289;28;20143;-62
2021/05/14 14:41:15;;;;;;;1.55;0.57;;;18.30;1.00;;;;;;5084059;28;20040;-62
2021/05/14 14:44:04;;;;;;;1.10;0.50;;;18.50;1.00;;;;;;5079665;28;20096;-62
2021/05/14 14:46:53;;;;;;;1.20;0.57;;;18.10;1.00;;;;;;5083325;28;20040;-62
2021/05/14 14:49:42;;;;;;;2.50;0.50;;;17.80;1.00;;;;;;5081529;28;20102;-61
2021/05/14 14:52:32;;;;;;;1.58;0.63;;;17.90;1.00;;;;;;5064307;28;20125;-62
2021/05/14 14:55:20;;;;;;;2.53;0.63;;;18.10;1.00;;;;;;5083320;28;20170;-61
2021/05/14 14:58:08;;;;;;;2.03;1.30;;;18.10;1.00;;;;;;5082926;28;20583;-63
2021/05/14 15:00:56;;;;;;;1.92;0.70;;;18.20;1.00;;;;;;5065242;28;20076;-60